sensor_id;sensor_type;location;lat;lon;timestamp;P1;durP1;ratioP1;P2;durP2;ratioP2
64957;SDS011;51486;50.232;19.208;2023-05-07T00:01:01;10.90;;;5.30;;
64957;SDS011;51486;50.232;19.208;2023-05-07T00:03:47;22.43;;;5.37;;
64957;SDS011;51486;50.232;19.208;2023-05-07T00:06:32;9.47;;;4.83;;
64957;SDS011;51486;50.232;19.208;2023-05-07T00:09:18;11.43;;;4.83;;
64957;SDS011;51486;50.232;19.208;2023-05-07T00:12:04;15.37;;;4.80;;
64957;SDS011;51486;50.232;19.208;2023-05-07T00:14:50;8.07;;;4.00;;
64957;SDS011;51486;50.232;19.208;2023-05-07T00:17:35;19.10;;;5.23;;
64957;SDS011;51486;50.232;19.208;2023-05-07T00:20:21;10.07;;;4.10;;
64957;SDS011;51486;50.232;19.208;2023-05-07T00:23:07;21.60;;;4.90;;
64957;SDS011;51486;50.232;19.208;2023-05-07T00:25:53;8.43;;;4.23;;
64957;SDS011;51486;50.232;19.208;2023-05-07T00:28:38;10.67;;;4.57;;
64957;SDS011;51486;50.232;19.208;2023-05-07T00:31:24;12.73;;;5.00;;
64957;SDS011;51486;50.232;19.208;2023-05-07T00:34:10;27.30;;;5.23;;
64957;SDS011;51486;50.232;19.208;2023-05-07T00:36:56;15.67;;;5.10;;
64957;SDS011;51486;50.232;19.208;2023-05-07T00:39:41;10.03;;;4.20;;
64957;SDS011;51486;50.232;19.208;2023-05-07T00:42:27;10.10;;;5.20;;
64957;SDS011;51486;50.232;19.208;2023-05-07T00:45:14;11.83;;;5.20;;
64957;SDS011;51486;50.232;19.208;2023-05-07T00:48:01;17.80;;;5.33;;
64957;SDS011;51486;50.232;19.208;2023-05-07T00:50:47;11.50;;;4.87;;
64957;SDS011;51486;50.232;19.208;2023-05-07T00:53:34;24.83;;;5.50;;
64957;SDS011;51486;50.232;19.208;2023-05-07T00:56:21;13.37;;;4.90;;
64957;SDS011;51486;50.232;19.208;2023-05-07T00:59:07;11.57;;;5.13;;
64957;SDS011;51486;50.232;19.208;2023-05-07T01:01:53;12.20;;;4.93;;
64957;SDS011;51486;50.232;19.208;2023-05-07T01:04:39;9.57;;;4.33;;
64957;SDS011;51486;50.232;19.208;2023-05-07T01:07:25;11.00;;;4.73;;
64957;SDS011;51486;50.232;19.208;2023-05-07T01:10:12;11.80;;;4.87;;
64957;SDS011;51486;50.232;19.208;2023-05-07T01:12:58;8.00;;;4.50;;
64957;SDS011;51486;50.232;19.208;2023-05-07T01:15:44;8.97;;;4.33;;
64957;SDS011;51486;50.232;19.208;2023-05-07T01:18:30;13.97;;;5.23;;
64957;SDS011;51486;50.232;19.208;2023-05-07T01:21:16;7.90;;;4.33;;
64957;SDS011;51486;50.232;19.208;2023-05-07T01:24:03;9.57;;;3.90;;
64957;SDS011;51486;50.232;19.208;2023-05-07T01:26:49;7.07;;;3.80;;
64957;SDS011;51486;50.232;19.208;2023-05-07T01:29:35;6.63;;;3.43;;
64957;SDS011;51486;50.232;19.208;2023-05-07T01:32:23;6.77;;;3.07;;
64957;SDS011;51486;50.232;19.208;2023-05-07T01:35:18;8.57;;;4.00;;
64957;SDS011;51486;50.232;19.208;2023-05-07T01:38:06;6.37;;;3.57;;
64957;SDS011;51486;50.232;19.208;2023-05-07T01:40:53;7.27;;;4.07;;
64957;SDS011;51486;50.232;19.208;2023-05-07T01:43:39;6.00;;;3.37;;
64957;SDS011;51486;50.232;19.208;2023-05-07T01:46:26;10.77;;;4.63;;
64957;SDS011;51486;50.232;19.208;2023-05-07T01:49:16;7.73;;;4.17;;
64957;SDS011;51486;50.232;19.208;2023-05-07T01:52:02;9.07;;;3.70;;
64957;SDS011;51486;50.232;19.208;2023-05-07T01:54:48;7.67;;;4.27;;
64957;SDS011;51486;50.232;19.208;2023-05-07T01:57:34;9.37;;;4.20;;
64957;SDS011;51486;50.232;19.208;2023-05-07T02:00:20;6.83;;;4.10;;
64957;SDS011;51486;50.232;19.208;2023-05-07T02:03:06;8.93;;;4.40;;
64957;SDS011;51486;50.232;19.208;2023-05-07T02:05:51;6.10;;;3.60;;
64957;SDS011;51486;50.232;19.208;2023-05-07T02:08:37;8.57;;;4.37;;
64957;SDS011;51486;50.232;19.208;2023-05-07T02:11:23;11.47;;;5.17;;
64957;SDS011;51486;50.232;19.208;2023-05-07T02:14:10;5.03;;;3.37;;
64957;SDS011;51486;50.232;19.208;2023-05-07T02:16:56;11.50;;;3.70;;
64957;SDS011;51486;50.232;19.208;2023-05-07T02:19:42;12.87;;;5.33;;
64957;SDS011;51486;50.232;19.208;2023-05-07T02:22:27;8.33;;;4.13;;
64957;SDS011;51486;50.232;19.208;2023-05-07T02:25:13;8.83;;;4.43;;
64957;SDS011;51486;50.232;19.208;2023-05-07T02:27:59;8.30;;;4.10;;
64957;SDS011;51486;50.232;19.208;2023-05-07T02:30:45;9.13;;;4.33;;
64957;SDS011;51486;50.232;19.208;2023-05-07T02:33:30;6.97;;;3.90;;
64957;SDS011;51486;50.232;19.208;2023-05-07T02:36:16;6.60;;;3.67;;
64957;SDS011;51486;50.232;19.208;2023-05-07T02:39:02;4.77;;;3.40;;
64957;SDS011;51486;50.232;19.208;2023-05-07T02:41:49;6.70;;;3.00;;
64957;SDS011;51486;50.232;19.208;2023-05-07T02:44:34;4.73;;;2.73;;
64957;SDS011;51486;50.232;19.208;2023-05-07T02:47:20;5.97;;;3.27;;
64957;SDS011;51486;50.232;19.208;2023-05-07T02:50:09;5.83;;;3.30;;
64957;SDS011;51486;50.232;19.208;2023-05-07T02:52:55;5.97;;;3.50;;
64957;SDS011;51486;50.232;19.208;2023-05-07T02:55:41;9.00;;;3.70;;
64957;SDS011;51486;50.232;19.208;2023-05-07T02:58:27;7.77;;;3.37;;
64957;SDS011;51486;50.232;19.208;2023-05-07T03:01:13;8.67;;;3.43;;
64957;SDS011;51486;50.232;19.208;2023-05-07T03:04:00;4.77;;;2.97;;
64957;SDS011;51486;50.232;19.208;2023-05-07T03:06:45;5.33;;;2.97;;
64957;SDS011;51486;50.232;19.208;2023-05-07T03:09:31;5.17;;;2.77;;
64957;SDS011;51486;50.232;19.208;2023-05-07T03:12:17;5.67;;;2.63;;
64957;SDS011;51486;50.232;19.208;2023-05-07T03:15:03;7.70;;;3.10;;
64957;SDS011;51486;50.232;19.208;2023-05-07T03:17:49;9.50;;;3.23;;
64957;SDS011;51486;50.232;19.208;2023-05-07T03:20:34;6.53;;;3.33;;
64957;SDS011;51486;50.232;19.208;2023-05-07T03:23:21;3.80;;;2.07;;
64957;SDS011;51486;50.232;19.208;2023-05-07T03:26:07;4.57;;;2.53;;
64957;SDS011;51486;50.232;19.208;2023-05-07T03:28:53;6.23;;;3.13;;
64957;SDS011;51486;50.232;19.208;2023-05-07T03:31:38;5.03;;;2.67;;
64957;SDS011;51486;50.232;19.208;2023-05-07T03:34:24;5.83;;;2.90;;
64957;SDS011;51486;50.232;19.208;2023-05-07T03:37:10;7.17;;;2.97;;
64957;SDS011;51486;50.232;19.208;2023-05-07T03:39:56;6.57;;;3.43;;
64957;SDS011;51486;50.232;19.208;2023-05-07T03:42:41;5.63;;;3.20;;
64957;SDS011;51486;50.232;19.208;2023-05-07T03:45:27;5.40;;;2.93;;
64957;SDS011;51486;50.232;19.208;2023-05-07T03:48:13;4.40;;;2.60;;
64957;SDS011;51486;50.232;19.208;2023-05-07T03:50:59;5.17;;;2.37;;
64957;SDS011;51486;50.232;19.208;2023-05-07T03:53:45;5.93;;;2.63;;
64957;SDS011;51486;50.232;19.208;2023-05-07T03:56:30;4.37;;;2.60;;
64957;SDS011;51486;50.232;19.208;2023-05-07T03:59:16;4.83;;;2.17;;
64957;SDS011;51486;50.232;19.208;2023-05-07T04:02:02;4.40;;;2.23;;
64957;SDS011;51486;50.232;19.208;2023-05-07T04:04:48;10.87;;;2.20;;
64957;SDS011;51486;50.232;19.208;2023-05-07T04:07:34;4.70;;;2.53;;
64957;SDS011;51486;50.232;19.208;2023-05-07T04:10:20;3.57;;;2.17;;
64957;SDS011;51486;50.232;19.208;2023-05-07T04:13:06;4.17;;;2.40;;
64957;SDS011;51486;50.232;19.208;2023-05-07T04:15:52;5.30;;;2.60;;
64957;SDS011;51486;50.232;19.208;2023-05-07T04:18:39;4.97;;;2.43;;
64957;SDS011;51486;50.232;19.208;2023-05-07T04:21:25;4.70;;;2.43;;
64957;SDS011;51486;50.232;19.208;2023-05-07T04:24:11;4.10;;;2.23;;
64957;SDS011;51486;50.232;19.208;2023-05-07T04:26:57;5.23;;;2.50;;
64957;SDS011;51486;50.232;19.208;2023-05-07T04:29:44;5.37;;;3.20;;
64957;SDS011;51486;50.232;19.208;2023-05-07T04:32:32;4.17;;;2.60;;
64957;SDS011;51486;50.232;19.208;2023-05-07T04:35:18;4.37;;;2.70;;
64957;SDS011;51486;50.232;19.208;2023-05-07T04:38:04;3.13;;;2.10;;
64957;SDS011;51486;50.232;19.208;2023-05-07T04:40:49;4.20;;;2.17;;
64957;SDS011;51486;50.232;19.208;2023-05-07T04:43:35;3.03;;;1.60;;
64957;SDS011;51486;50.232;19.208;2023-05-07T04:46:21;2.77;;;1.77;;
64957;SDS011;51486;50.232;19.208;2023-05-07T04:49:07;2.83;;;1.57;;
64957;SDS011;51486;50.232;19.208;2023-05-07T04:51:52;4.60;;;2.10;;
64957;SDS011;51486;50.232;19.208;2023-05-07T04:54:38;5.63;;;2.33;;
64957;SDS011;51486;50.232;19.208;2023-05-07T04:57:24;2.27;;;1.60;;
64957;SDS011;51486;50.232;19.208;2023-05-07T05:00:10;5.73;;;2.20;;
64957;SDS011;51486;50.232;19.208;2023-05-07T05:02:59;3.10;;;1.90;;
64957;SDS011;51486;50.232;19.208;2023-05-07T05:05:45;5.13;;;2.10;;
64957;SDS011;51486;50.232;19.208;2023-05-07T05:08:30;3.13;;;1.57;;
64957;SDS011;51486;50.232;19.208;2023-05-07T05:11:16;5.70;;;2.20;;
64957;SDS011;51486;50.232;19.208;2023-05-07T05:14:02;3.80;;;2.17;;
64957;SDS011;51486;50.232;19.208;2023-05-07T05:16:47;3.97;;;1.90;;
64957;SDS011;51486;50.232;19.208;2023-05-07T05:19:33;2.67;;;1.90;;
64957;SDS011;51486;50.232;19.208;2023-05-07T05:22:19;3.90;;;2.37;;
64957;SDS011;51486;50.232;19.208;2023-05-07T05:25:05;4.83;;;2.13;;
64957;SDS011;51486;50.232;19.208;2023-05-07T05:27:51;5.17;;;2.57;;
64957;SDS011;51486;50.232;19.208;2023-05-07T05:30:36;5.27;;;2.80;;
64957;SDS011;51486;50.232;19.208;2023-05-07T05:33:22;7.20;;;1.63;;
64957;SDS011;51486;50.232;19.208;2023-05-07T05:36:11;5.20;;;2.73;;
64957;SDS011;51486;50.232;19.208;2023-05-07T05:38:58;4.37;;;2.60;;
64957;SDS011;51486;50.232;19.208;2023-05-07T05:41:44;3.63;;;1.67;;
64957;SDS011;51486;50.232;19.208;2023-05-07T05:44:29;4.70;;;2.20;;
64957;SDS011;51486;50.232;19.208;2023-05-07T05:47:15;2.90;;;2.03;;
64957;SDS011;51486;50.232;19.208;2023-05-07T05:50:01;3.37;;;1.87;;
64957;SDS011;51486;50.232;19.208;2023-05-07T05:52:46;5.83;;;2.10;;
64957;SDS011;51486;50.232;19.208;2023-05-07T05:55:32;5.67;;;2.80;;
64957;SDS011;51486;50.232;19.208;2023-05-07T05:58:19;5.03;;;2.67;;
64957;SDS011;51486;50.232;19.208;2023-05-07T06:01:04;6.87;;;3.80;;
64957;SDS011;51486;50.232;19.208;2023-05-07T06:03:50;5.03;;;2.70;;
64957;SDS011;51486;50.232;19.208;2023-05-07T06:06:36;4.90;;;2.67;;
64957;SDS011;51486;50.232;19.208;2023-05-07T06:09:22;6.30;;;3.07;;
64957;SDS011;51486;50.232;19.208;2023-05-07T06:12:08;5.03;;;2.83;;
64957;SDS011;51486;50.232;19.208;2023-05-07T06:14:53;5.10;;;2.73;;
64957;SDS011;51486;50.232;19.208;2023-05-07T06:17:39;4.57;;;2.60;;
64957;SDS011;51486;50.232;19.208;2023-05-07T06:20:25;6.30;;;2.80;;
64957;SDS011;51486;50.232;19.208;2023-05-07T06:23:10;4.80;;;2.50;;
64957;SDS011;51486;50.232;19.208;2023-05-07T06:25:56;3.93;;;1.97;;
64957;SDS011;51486;50.232;19.208;2023-05-07T06:28:42;7.20;;;2.10;;
64957;SDS011;51486;50.232;19.208;2023-05-07T06:31:29;5.80;;;2.10;;
64957;SDS011;51486;50.232;19.208;2023-05-07T06:34:16;4.07;;;2.47;;
64957;SDS011;51486;50.232;19.208;2023-05-07T06:37:02;3.17;;;2.10;;
64957;SDS011;51486;50.232;19.208;2023-05-07T06:39:48;6.50;;;2.70;;
64957;SDS011;51486;50.232;19.208;2023-05-07T06:42:35;4.30;;;2.30;;
64957;SDS011;51486;50.232;19.208;2023-05-07T06:45:21;10.47;;;3.17;;
64957;SDS011;51486;50.232;19.208;2023-05-07T06:48:06;4.73;;;2.70;;
64957;SDS011;51486;50.232;19.208;2023-05-07T06:50:52;3.67;;;2.57;;
64957;SDS011;51486;50.232;19.208;2023-05-07T06:53:40;4.97;;;2.90;;
64957;SDS011;51486;50.232;19.208;2023-05-07T06:56:26;9.00;;;4.27;;
64957;SDS011;51486;50.232;19.208;2023-05-07T06:59:11;12.60;;;5.00;;
64957;SDS011;51486;50.232;19.208;2023-05-07T07:01:57;8.00;;;3.13;;
64957;SDS011;51486;50.232;19.208;2023-05-07T07:04:43;5.93;;;3.50;;
64957;SDS011;51486;50.232;19.208;2023-05-07T07:07:30;9.37;;;4.53;;
64957;SDS011;51486;50.232;19.208;2023-05-07T07:10:15;6.80;;;3.77;;
64957;SDS011;51486;50.232;19.208;2023-05-07T07:13:01;7.00;;;2.87;;
64957;SDS011;51486;50.232;19.208;2023-05-07T07:15:47;5.17;;;2.40;;
64957;SDS011;51486;50.232;19.208;2023-05-07T07:18:33;3.77;;;2.50;;
64957;SDS011;51486;50.232;19.208;2023-05-07T07:21:18;4.50;;;2.77;;
64957;SDS011;51486;50.232;19.208;2023-05-07T07:24:04;5.97;;;3.30;;
64957;SDS011;51486;50.232;19.208;2023-05-07T07:26:50;6.53;;;2.70;;
64957;SDS011;51486;50.232;19.208;2023-05-07T07:29:35;5.30;;;2.40;;
64957;SDS011;51486;50.232;19.208;2023-05-07T07:32:21;6.70;;;2.37;;
64957;SDS011;51486;50.232;19.208;2023-05-07T07:35:07;5.07;;;2.77;;
64957;SDS011;51486;50.232;19.208;2023-05-07T07:37:53;5.40;;;2.47;;
64957;SDS011;51486;50.232;19.208;2023-05-07T07:40:39;4.30;;;2.13;;
64957;SDS011;51486;50.232;19.208;2023-05-07T07:43:25;2.87;;;1.80;;
64957;SDS011;51486;50.232;19.208;2023-05-07T07:46:11;4.93;;;2.63;;
64957;SDS011;51486;50.232;19.208;2023-05-07T07:48:56;4.03;;;2.47;;
64957;SDS011;51486;50.232;19.208;2023-05-07T07:51:44;5.23;;;2.50;;
64957;SDS011;51486;50.232;19.208;2023-05-07T07:54:29;4.03;;;2.37;;
64957;SDS011;51486;50.232;19.208;2023-05-07T07:57:15;2.83;;;1.80;;
64957;SDS011;51486;50.232;19.208;2023-05-07T08:00:01;2.10;;;1.50;;
64957;SDS011;51486;50.232;19.208;2023-05-07T08:02:47;3.23;;;1.70;;
64957;SDS011;51486;50.232;19.208;2023-05-07T08:05:33;3.53;;;2.27;;
64957;SDS011;51486;50.232;19.208;2023-05-07T08:08:19;4.17;;;1.97;;
64957;SDS011;51486;50.232;19.208;2023-05-07T08:11:04;3.10;;;1.80;;
64957;SDS011;51486;50.232;19.208;2023-05-07T08:13:50;3.23;;;2.07;;
64957;SDS011;51486;50.232;19.208;2023-05-07T08:16:36;6.00;;;2.30;;
64957;SDS011;51486;50.232;19.208;2023-05-07T08:19:22;5.47;;;2.17;;
64957;SDS011;51486;50.232;19.208;2023-05-07T08:22:08;3.60;;;2.20;;
64957;SDS011;51486;50.232;19.208;2023-05-07T08:24:54;3.87;;;2.27;;
64957;SDS011;51486;50.232;19.208;2023-05-07T08:27:40;5.47;;;2.87;;
64957;SDS011;51486;50.232;19.208;2023-05-07T08:30:26;5.53;;;2.67;;
64957;SDS011;51486;50.232;19.208;2023-05-07T08:33:12;7.57;;;2.43;;
64957;SDS011;51486;50.232;19.208;2023-05-07T08:35:58;3.70;;;2.20;;
64957;SDS011;51486;50.232;19.208;2023-05-07T08:38:43;3.90;;;2.30;;
64957;SDS011;51486;50.232;19.208;2023-05-07T08:41:31;7.20;;;3.60;;
64957;SDS011;51486;50.232;19.208;2023-05-07T08:44:16;4.20;;;2.53;;
64957;SDS011;51486;50.232;19.208;2023-05-07T08:47:07;4.00;;;2.03;;
64957;SDS011;51486;50.232;19.208;2023-05-07T08:49:53;5.27;;;2.07;;
64957;SDS011;51486;50.232;19.208;2023-05-07T08:52:40;3.37;;;2.33;;
64957;SDS011;51486;50.232;19.208;2023-05-07T08:55:26;5.13;;;2.20;;
64957;SDS011;51486;50.232;19.208;2023-05-07T08:58:14;3.53;;;2.20;;
64957;SDS011;51486;50.232;19.208;2023-05-07T09:01:01;4.30;;;2.33;;
64957;SDS011;51486;50.232;19.208;2023-05-07T09:03:52;4.97;;;2.63;;
64957;SDS011;51486;50.232;19.208;2023-05-07T09:06:38;4.70;;;2.63;;
64957;SDS011;51486;50.232;19.208;2023-05-07T09:09:27;3.87;;;2.17;;
64957;SDS011;51486;50.232;19.208;2023-05-07T09:12:13;4.73;;;2.43;;
64957;SDS011;51486;50.232;19.208;2023-05-07T09:14:59;5.07;;;2.20;;
64957;SDS011;51486;50.232;19.208;2023-05-07T09:17:45;4.27;;;2.53;;
64957;SDS011;51486;50.232;19.208;2023-05-07T09:20:30;3.97;;;2.33;;
64957;SDS011;51486;50.232;19.208;2023-05-07T09:23:17;4.00;;;2.67;;
64957;SDS011;51486;50.232;19.208;2023-05-07T09:26:03;8.00;;;2.77;;
64957;SDS011;51486;50.232;19.208;2023-05-07T09:28:49;6.17;;;3.13;;
64957;SDS011;51486;50.232;19.208;2023-05-07T09:31:38;4.30;;;2.57;;
64957;SDS011;51486;50.232;19.208;2023-05-07T09:34:24;5.33;;;2.73;;
64957;SDS011;51486;50.232;19.208;2023-05-07T09:37:10;5.70;;;2.73;;
64957;SDS011;51486;50.232;19.208;2023-05-07T09:39:58;5.23;;;2.37;;
64957;SDS011;51486;50.232;19.208;2023-05-07T09:42:43;5.27;;;3.43;;
64957;SDS011;51486;50.232;19.208;2023-05-07T09:45:29;8.53;;;3.23;;
64957;SDS011;51486;50.232;19.208;2023-05-07T09:48:15;8.70;;;3.53;;
64957;SDS011;51486;50.232;19.208;2023-05-07T09:51:02;7.30;;;4.10;;
64957;SDS011;51486;50.232;19.208;2023-05-07T09:53:53;5.57;;;3.40;;
64957;SDS011;51486;50.232;19.208;2023-05-07T09:56:39;9.00;;;3.53;;
64957;SDS011;51486;50.232;19.208;2023-05-07T09:59:27;6.30;;;3.07;;
64957;SDS011;51486;50.232;19.208;2023-05-07T10:02:13;7.10;;;3.13;;
64957;SDS011;51486;50.232;19.208;2023-05-07T10:05:00;6.27;;;3.43;;
64957;SDS011;51486;50.232;19.208;2023-05-07T10:07:47;8.67;;;3.90;;
64957;SDS011;51486;50.232;19.208;2023-05-07T10:10:33;4.77;;;3.10;;
64957;SDS011;51486;50.232;19.208;2023-05-07T10:13:19;4.37;;;2.80;;
64957;SDS011;51486;50.232;19.208;2023-05-07T10:16:06;9.03;;;3.53;;
64957;SDS011;51486;50.232;19.208;2023-05-07T10:18:52;6.10;;;3.17;;
64957;SDS011;51486;50.232;19.208;2023-05-07T10:21:44;6.13;;;3.10;;
64957;SDS011;51486;50.232;19.208;2023-05-07T10:24:36;3.47;;;2.23;;
64957;SDS011;51486;50.232;19.208;2023-05-07T10:27:23;3.67;;;2.77;;
64957;SDS011;51486;50.232;19.208;2023-05-07T10:30:20;2.30;;;1.90;;
64957;SDS011;51486;50.232;19.208;2023-05-07T10:33:11;3.43;;;2.10;;
64957;SDS011;51486;50.232;19.208;2023-05-07T10:36:00;2.87;;;2.03;;
64957;SDS011;51486;50.232;19.208;2023-05-07T10:38:48;5.30;;;2.47;;
64957;SDS011;51486;50.232;19.208;2023-05-07T10:41:33;7.47;;;3.27;;
64957;SDS011;51486;50.232;19.208;2023-05-07T10:44:29;5.47;;;2.87;;
64957;SDS011;51486;50.232;19.208;2023-05-07T10:47:17;9.80;;;2.90;;
64957;SDS011;51486;50.232;19.208;2023-05-07T10:53:35;3.67;;;2.10;;
64957;SDS011;51486;50.232;19.208;2023-05-07T11:02:06;3.57;;;1.87;;
64957;SDS011;51486;50.232;19.208;2023-05-07T11:08:07;3.60;;;2.23;;
64957;SDS011;51486;50.232;19.208;2023-05-07T11:10:54;3.07;;;2.03;;
64957;SDS011;51486;50.232;19.208;2023-05-07T11:16:34;3.47;;;2.07;;
64957;SDS011;51486;50.232;19.208;2023-05-07T11:22:40;2.80;;;2.07;;
64957;SDS011;51486;50.232;19.208;2023-05-07T11:25:26;6.13;;;2.53;;
64957;SDS011;51486;50.232;19.208;2023-05-07T11:28:12;4.23;;;2.70;;
64957;SDS011;51486;50.232;19.208;2023-05-07T11:30:58;4.60;;;2.27;;
64957;SDS011;51486;50.232;19.208;2023-05-07T11:33:44;3.90;;;2.40;;
64957;SDS011;51486;50.232;19.208;2023-05-07T11:36:31;5.30;;;2.10;;
64957;SDS011;51486;50.232;19.208;2023-05-07T11:39:27;3.60;;;2.10;;
64957;SDS011;51486;50.232;19.208;2023-05-07T11:45:22;4.70;;;2.30;;
64957;SDS011;51486;50.232;19.208;2023-05-07T11:48:10;2.50;;;1.63;;
64957;SDS011;51486;50.232;19.208;2023-05-07T11:51:01;1.80;;;1.37;;
64957;SDS011;51486;50.232;19.208;2023-05-07T11:53:48;3.27;;;1.57;;
64957;SDS011;51486;50.232;19.208;2023-05-07T11:56:34;2.70;;;1.63;;
64957;SDS011;51486;50.232;19.208;2023-05-07T11:59:23;6.80;;;1.90;;
64957;SDS011;51486;50.232;19.208;2023-05-07T12:02:09;2.57;;;1.67;;
64957;SDS011;51486;50.232;19.208;2023-05-07T12:04:55;2.83;;;1.77;;
64957;SDS011;51486;50.232;19.208;2023-05-07T12:07:41;1.20;;;1.10;;
64957;SDS011;51486;50.232;19.208;2023-05-07T12:10:27;2.87;;;1.90;;
64957;SDS011;51486;50.232;19.208;2023-05-07T12:16:08;6.57;;;2.47;;
64957;SDS011;51486;50.232;19.208;2023-05-07T12:18:54;2.90;;;1.27;;
64957;SDS011;51486;50.232;19.208;2023-05-07T12:21:40;4.10;;;2.33;;
64957;SDS011;51486;50.232;19.208;2023-05-07T12:24:26;3.47;;;1.70;;
64957;SDS011;51486;50.232;19.208;2023-05-07T12:27:13;3.60;;;1.47;;
64957;SDS011;51486;50.232;19.208;2023-05-07T12:29:59;2.63;;;1.70;;
64957;SDS011;51486;50.232;19.208;2023-05-07T12:32:45;6.10;;;1.73;;
64957;SDS011;51486;50.232;19.208;2023-05-07T12:35:32;1.83;;;1.33;;
64957;SDS011;51486;50.232;19.208;2023-05-07T12:38:22;2.73;;;1.50;;
64957;SDS011;51486;50.232;19.208;2023-05-07T12:41:09;3.93;;;1.47;;
64957;SDS011;51486;50.232;19.208;2023-05-07T12:43:56;3.43;;;1.47;;
64957;SDS011;51486;50.232;19.208;2023-05-07T12:46:43;5.03;;;2.30;;
64957;SDS011;51486;50.232;19.208;2023-05-07T12:49:29;2.57;;;1.63;;
64957;SDS011;51486;50.232;19.208;2023-05-07T12:52:15;2.90;;;1.60;;
64957;SDS011;51486;50.232;19.208;2023-05-07T12:55:04;2.83;;;1.60;;
64957;SDS011;51486;50.232;19.208;2023-05-07T12:57:52;2.27;;;1.57;;
64957;SDS011;51486;50.232;19.208;2023-05-07T13:00:38;1.90;;;1.43;;
64957;SDS011;51486;50.232;19.208;2023-05-07T13:03:25;2.17;;;1.43;;
64957;SDS011;51486;50.232;19.208;2023-05-07T13:06:18;1.30;;;1.10;;
64957;SDS011;51486;50.232;19.208;2023-05-07T13:09:04;6.03;;;1.67;;
64957;SDS011;51486;50.232;19.208;2023-05-07T13:11:50;1.30;;;1.17;;
64957;SDS011;51486;50.232;19.208;2023-05-07T13:14:35;2.00;;;1.43;;
64957;SDS011;51486;50.232;19.208;2023-05-07T13:17:21;2.67;;;1.27;;
64957;SDS011;51486;50.232;19.208;2023-05-07T13:20:08;2.10;;;1.30;;
64957;SDS011;51486;50.232;19.208;2023-05-07T13:22:54;2.57;;;1.47;;
64957;SDS011;51486;50.232;19.208;2023-05-07T13:25:40;2.50;;;1.30;;
64957;SDS011;51486;50.232;19.208;2023-05-07T13:28:26;2.50;;;1.53;;
64957;SDS011;51486;50.232;19.208;2023-05-07T13:31:12;2.30;;;1.60;;
64957;SDS011;51486;50.232;19.208;2023-05-07T13:33:57;2.57;;;1.60;;
64957;SDS011;51486;50.232;19.208;2023-05-07T13:36:43;3.50;;;1.80;;
64957;SDS011;51486;50.232;19.208;2023-05-07T13:39:29;5.27;;;1.90;;
64957;SDS011;51486;50.232;19.208;2023-05-07T13:42:14;4.07;;;2.20;;
64957;SDS011;51486;50.232;19.208;2023-05-07T13:45:00;3.13;;;1.63;;
64957;SDS011;51486;50.232;19.208;2023-05-07T13:47:48;3.53;;;2.33;;
64957;SDS011;51486;50.232;19.208;2023-05-07T13:50:34;4.07;;;2.03;;
64957;SDS011;51486;50.232;19.208;2023-05-07T13:53:20;3.00;;;1.93;;
64957;SDS011;51486;50.232;19.208;2023-05-07T13:56:06;8.97;;;2.27;;
64957;SDS011;51486;50.232;19.208;2023-05-07T13:58:51;6.47;;;2.47;;
64957;SDS011;51486;50.232;19.208;2023-05-07T14:01:37;15.47;;;1.50;;
64957;SDS011;51486;50.232;19.208;2023-05-07T14:04:23;2.60;;;1.40;;
64957;SDS011;51486;50.232;19.208;2023-05-07T14:07:09;3.20;;;1.87;;
64957;SDS011;51486;50.232;19.208;2023-05-07T14:09:54;2.70;;;2.03;;
64957;SDS011;51486;50.232;19.208;2023-05-07T14:12:40;4.40;;;2.07;;
64957;SDS011;51486;50.232;19.208;2023-05-07T14:15:26;2.97;;;1.40;;
64957;SDS011;51486;50.232;19.208;2023-05-07T14:18:12;3.03;;;1.93;;
64957;SDS011;51486;50.232;19.208;2023-05-07T14:20:58;5.17;;;1.73;;
64957;SDS011;51486;50.232;19.208;2023-05-07T14:23:44;3.30;;;1.70;;
64957;SDS011;51486;50.232;19.208;2023-05-07T14:26:29;4.50;;;2.17;;
64957;SDS011;51486;50.232;19.208;2023-05-07T14:29:16;2.30;;;1.80;;
64957;SDS011;51486;50.232;19.208;2023-05-07T14:32:04;2.27;;;1.53;;
64957;SDS011;51486;50.232;19.208;2023-05-07T14:34:50;3.07;;;1.87;;
64957;SDS011;51486;50.232;19.208;2023-05-07T14:37:36;2.00;;;1.40;;
64957;SDS011;51486;50.232;19.208;2023-05-07T14:40:21;3.80;;;1.90;;
64957;SDS011;51486;50.232;19.208;2023-05-07T14:43:07;2.77;;;1.77;;
64957;SDS011;51486;50.232;19.208;2023-05-07T14:45:53;3.17;;;1.70;;
64957;SDS011;51486;50.232;19.208;2023-05-07T14:48:39;4.00;;;2.50;;
64957;SDS011;51486;50.232;19.208;2023-05-07T14:51:24;4.33;;;2.30;;
64957;SDS011;51486;50.232;19.208;2023-05-07T14:54:11;5.60;;;2.50;;
64957;SDS011;51486;50.232;19.208;2023-05-07T14:57:00;3.83;;;2.00;;
64957;SDS011;51486;50.232;19.208;2023-05-07T14:59:46;5.93;;;1.97;;
64957;SDS011;51486;50.232;19.208;2023-05-07T15:02:32;3.50;;;1.80;;
64957;SDS011;51486;50.232;19.208;2023-05-07T15:05:18;4.57;;;2.43;;
64957;SDS011;51486;50.232;19.208;2023-05-07T15:08:04;3.50;;;2.33;;
64957;SDS011;51486;50.232;19.208;2023-05-07T15:10:50;3.10;;;2.00;;
64957;SDS011;51486;50.232;19.208;2023-05-07T15:13:36;4.50;;;2.33;;
64957;SDS011;51486;50.232;19.208;2023-05-07T15:16:22;4.43;;;2.20;;
64957;SDS011;51486;50.232;19.208;2023-05-07T15:19:07;2.30;;;1.30;;
64957;SDS011;51486;50.232;19.208;2023-05-07T15:21:53;6.13;;;2.70;;
64957;SDS011;51486;50.232;19.208;2023-05-07T15:24:40;4.73;;;2.17;;
64957;SDS011;51486;50.232;19.208;2023-05-07T15:27:26;5.13;;;2.70;;
64957;SDS011;51486;50.232;19.208;2023-05-07T15:30:12;4.50;;;2.13;;
64957;SDS011;51486;50.232;19.208;2023-05-07T15:33:00;4.33;;;2.23;;
64957;SDS011;51486;50.232;19.208;2023-05-07T15:35:46;9.53;;;3.00;;
64957;SDS011;51486;50.232;19.208;2023-05-07T15:38:32;4.27;;;2.17;;
64957;SDS011;51486;50.232;19.208;2023-05-07T15:41:18;4.50;;;2.03;;
64957;SDS011;51486;50.232;19.208;2023-05-07T15:44:03;5.90;;;2.47;;
64957;SDS011;51486;50.232;19.208;2023-05-07T15:46:49;5.43;;;2.47;;
64957;SDS011;51486;50.232;19.208;2023-05-07T15:49:35;6.40;;;3.07;;
64957;SDS011;51486;50.232;19.208;2023-05-07T15:52:21;5.63;;;2.60;;
64957;SDS011;51486;50.232;19.208;2023-05-07T15:55:07;2.90;;;1.93;;
64957;SDS011;51486;50.232;19.208;2023-05-07T15:57:54;7.83;;;2.70;;
64957;SDS011;51486;50.232;19.208;2023-05-07T16:00:39;3.17;;;2.20;;
64957;SDS011;51486;50.232;19.208;2023-05-07T16:03:27;5.90;;;3.10;;
64957;SDS011;51486;50.232;19.208;2023-05-07T16:06:13;9.53;;;2.00;;
64957;SDS011;51486;50.232;19.208;2023-05-07T16:08:59;4.23;;;2.50;;
64957;SDS011;51486;50.232;19.208;2023-05-07T16:11:45;5.67;;;2.83;;
64957;SDS011;51486;50.232;19.208;2023-05-07T16:14:30;5.60;;;2.83;;
64957;SDS011;51486;50.232;19.208;2023-05-07T16:17:16;6.03;;;2.97;;
64957;SDS011;51486;50.232;19.208;2023-05-07T16:20:02;6.63;;;2.63;;
64957;SDS011;51486;50.232;19.208;2023-05-07T16:22:50;9.10;;;3.10;;
64957;SDS011;51486;50.232;19.208;2023-05-07T16:25:36;5.20;;;2.20;;
64957;SDS011;51486;50.232;19.208;2023-05-07T16:28:22;6.37;;;2.27;;
64957;SDS011;51486;50.232;19.208;2023-05-07T16:31:08;5.93;;;2.33;;
64957;SDS011;51486;50.232;19.208;2023-05-07T16:33:53;6.23;;;3.13;;
64957;SDS011;51486;50.232;19.208;2023-05-07T16:36:39;6.33;;;2.70;;
64957;SDS011;51486;50.232;19.208;2023-05-07T16:39:25;4.67;;;3.03;;
64957;SDS011;51486;50.232;19.208;2023-05-07T16:42:11;5.27;;;3.13;;
64957;SDS011;51486;50.232;19.208;2023-05-07T16:44:57;9.20;;;3.10;;
64957;SDS011;51486;50.232;19.208;2023-05-07T16:47:42;6.60;;;3.60;;
64957;SDS011;51486;50.232;19.208;2023-05-07T16:50:28;7.00;;;2.67;;